sensor_id;sensor_type;location;lat;lon;timestamp;pressure;altitude;pressure_sealevel;temperature;humidity
34177;BME280;20450;49.074;9.158;2023-02-03T00:02:25;101054.97;;;7.68;76.13
34177;BME280;20450;49.074;9.158;2023-02-03T00:04:52;101068.56;;;7.67;76.20
34177;BME280;20450;49.074;9.158;2023-02-03T00:07:19;101063.19;;;7.67;76.18
34177;BME280;20450;49.074;9.158;2023-02-03T00:09:46;101067.38;;;7.69;76.16
34177;BME280;20450;49.074;9.158;2023-02-03T00:12:13;101061.84;;;7.71;76.10
34177;BME280;20450;49.074;9.158;2023-02-03T00:14:40;101055.13;;;7.67;76.55
34177;BME280;20450;49.074;9.158;2023-02-03T00:17:07;101060.34;;;7.68;76.72
34177;BME280;20450;49.074;9.158;2023-02-03T00:19:35;101045.22;;;7.67;76.63
34177;BME280;20450;49.074;9.158;2023-02-03T00:22:02;101055.97;;;7.67;76.34
34177;BME280;20450;49.074;9.158;2023-02-03T00:24:29;101067.88;;;7.65;76.95
34177;BME280;20450;49.074;9.158;2023-02-03T00:26:56;101053.44;;;7.66;76.89
34177;BME280;20450;49.074;9.158;2023-02-03T00:29:23;101051.91;;;7.63;76.70
34177;BME280;20450;49.074;9.158;2023-02-03T00:31:50;101067.72;;;7.66;77.15
34177;BME280;20450;49.074;9.158;2023-02-03T00:34:18;101071.25;;;7.67;77.33
34177;BME280;20450;49.074;9.158;2023-02-03T00:36:46;101069.75;;;7.64;76.74
34177;BME280;20450;49.074;9.158;2023-02-03T00:39:14;101071.09;;;7.68;77.17
34177;BME280;20450;49.074;9.158;2023-02-03T00:41:41;101071.09;;;7.68;77.11
34177;BME280;20450;49.074;9.158;2023-02-03T00:44:08;101059.63;;;7.66;77.51
34177;BME280;20450;49.074;9.158;2023-02-03T00:46:36;101063.03;;;7.68;76.96
34177;BME280;20450;49.074;9.158;2023-02-03T00:49:03;101056.63;;;7.69;77.18
34177;BME280;20450;49.074;9.158;2023-02-03T00:51:30;101058.50;;;7.69;77.45
34177;BME280;20450;49.074;9.158;2023-02-03T00:53:59;101071.25;;;7.67;76.95
34177;BME280;20450;49.074;9.158;2023-02-03T00:56:28;101065.56;;;7.70;77.01
34177;BME280;20450;49.074;9.158;2023-02-03T00:58:55;101060.00;;;7.71;77.60
34177;BME280;20450;49.074;9.158;2023-02-03T01:01:22;101053.63;;;7.72;77.66
34177;BME280;20450;49.074;9.158;2023-02-03T01:03:49;101037.47;;;7.72;77.24
34177;BME280;20450;49.074;9.158;2023-02-03T01:06:18;101016.66;;;7.74;77.25
34177;BME280;20450;49.074;9.158;2023-02-03T01:08:46;101016.31;;;7.77;77.31
34177;BME280;20450;49.074;9.158;2023-02-03T01:11:20;101026.72;;;7.72;77.86
34177;BME280;20450;49.074;9.158;2023-02-03T01:13:49;101037.47;;;7.72;77.12
34177;BME280;20450;49.074;9.158;2023-02-03T01:16:19;101047.25;;;7.73;77.93
34177;BME280;20450;49.074;9.158;2023-02-03T01:18:49;101036.34;;;7.75;77.33
34177;BME280;20450;49.074;9.158;2023-02-03T01:21:18;101026.41;;;7.75;77.39
34177;BME280;20450;49.074;9.158;2023-02-03T01:23:46;101028.25;;;7.75;77.23
34177;BME280;20450;49.074;9.158;2023-02-03T01:26:17;101036.97;;;7.69;77.95
34177;BME280;20450;49.074;9.158;2023-02-03T01:28:50;101023.53;;;7.69;77.81
34177;BME280;20450;49.074;9.158;2023-02-03T01:31:21;101026.38;;;7.67;78.11
34177;BME280;20450;49.074;9.158;2023-02-03T01:33:50;101030.22;;;7.65;78.04
34177;BME280;20450;49.074;9.158;2023-02-03T01:36:19;101030.22;;;7.65;78.49
34177;BME280;20450;49.074;9.158;2023-02-03T01:38:48;101025.69;;;7.65;77.89
34177;BME280;20450;49.074;9.158;2023-02-03T01:41:19;101022.84;;;7.67;78.13
34177;BME280;20450;49.074;9.158;2023-02-03T01:43:49;101027.38;;;7.66;78.25
34177;BME280;20450;49.074;9.158;2023-02-03T01:46:24;101034.78;;;7.64;78.44
34177;BME280;20450;49.074;9.158;2023-02-03T01:49:02;101032.75;;;7.66;78.91
34177;BME280;20450;49.074;9.158;2023-02-03T01:51:34;101027.69;;;7.63;78.31
34177;BME280;20450;49.074;9.158;2023-02-03T01:54:02;101036.44;;;7.65;78.35
34177;BME280;20450;49.074;9.158;2023-02-03T01:56:35;101019.78;;;7.62;78.57
34177;BME280;20450;49.074;9.158;2023-02-03T01:59:06;101008.88;;;7.63;79.24
34177;BME280;20450;49.074;9.158;2023-02-03T02:01:34;100994.59;;;7.63;78.96
34177;BME280;20450;49.074;9.158;2023-02-03T02:04:03;100995.59;;;7.62;78.51
34177;BME280;20450;49.074;9.158;2023-02-03T02:06:31;100979.28;;;7.63;79.03
34177;BME280;20450;49.074;9.158;2023-02-03T02:08:58;100983.69;;;7.64;78.29
34177;BME280;20450;49.074;9.158;2023-02-03T02:11:27;100979.28;;;7.63;78.87
34177;BME280;20450;49.074;9.158;2023-02-03T02:13:57;100979.47;;;7.62;78.43
34177;BME280;20450;49.074;9.158;2023-02-03T02:16:36;100989.06;;;7.64;78.49
34177;BME280;20450;49.074;9.158;2023-02-03T02:19:36;100978.31;;;7.64;78.45
34177;BME280;20450;49.074;9.158;2023-02-03T02:22:29;100953.78;;;7.67;78.52
34177;BME280;20450;49.074;9.158;2023-02-03T02:25:17;100925.72;;;7.70;78.56
34177;BME280;20450;49.074;9.158;2023-02-03T02:28:30;100902.53;;;7.69;78.60
34177;BME280;20450;49.074;9.158;2023-02-03T02:31:44;100940.81;;;7.63;78.86
34177;BME280;20450;49.074;9.158;2023-02-03T02:34:24;100949.88;;;7.62;78.63
34177;BME280;20450;49.074;9.158;2023-02-03T02:37:06;100944.81;;;7.59;78.76
34177;BME280;20450;49.074;9.158;2023-02-03T02:39:52;100968.88;;;7.60;78.95
34177;BME280;20450;49.074;9.158;2023-02-03T02:42:31;100973.75;;;7.57;79.38
34177;BME280;20450;49.074;9.158;2023-02-03T02:45:09;100960.97;;;7.59;78.77
34177;BME280;20450;49.074;9.158;2023-02-03T02:47:44;100967.03;;;7.61;78.86
34177;BME280;20450;49.074;9.158;2023-02-03T02:50:15;100956.44;;;7.59;78.70
34177;BME280;20450;49.074;9.158;2023-02-03T02:52:49;100967.56;;;7.64;78.84
34177;BME280;20450;49.074;9.158;2023-02-03T02:55:22;100956.78;;;7.64;79.18
34177;BME280;20450;49.074;9.158;2023-02-03T02:58:00;100939.13;;;7.62;78.94
34177;BME280;20450;49.074;9.158;2023-02-03T03:00:34;100941.81;;;7.62;79.24
34177;BME280;20450;49.074;9.158;2023-02-03T03:03:14;100953.91;;;7.58;79.26
34177;BME280;20450;49.074;9.158;2023-02-03T03:05:47;100949.38;;;7.58;79.31
34177;BME280;20450;49.074;9.158;2023-02-03T03:08:24;100938.63;;;7.58;79.14
34177;BME280;20450;49.074;9.158;2023-02-03T03:10:59;100937.44;;;7.61;78.69
34177;BME280;20450;49.074;9.158;2023-02-03T03:13:31;100936.44;;;7.62;79.19
34177;BME280;20450;49.074;9.158;2023-02-03T03:16:07;100941.00;;;7.61;79.33
34177;BME280;20450;49.074;9.158;2023-02-03T03:18:41;100958.97;;;7.61;79.25
34177;BME280;20450;49.074;9.158;2023-02-03T03:21:18;100960.63;;;7.62;79.09
34177;BME280;20450;49.074;9.158;2023-02-03T03:23:51;100958.78;;;7.62;78.46
34177;BME280;20450;49.074;9.158;2023-02-03T03:26:29;100962.19;;;7.64;79.02
34177;BME280;20450;49.074;9.158;2023-02-03T03:29:08;100964.34;;;7.61;78.56
34177;BME280;20450;49.074;9.158;2023-02-03T03:31:39;100974.25;;;7.60;78.28
34177;BME280;20450;49.074;9.158;2023-02-03T03:34:10;100977.94;;;7.59;79.01
34177;BME280;20450;49.074;9.158;2023-02-03T03:36:43;100995.25;;;7.57;78.77
34177;BME280;20450;49.074;9.158;2023-02-03T03:39:21;100990.69;;;7.57;78.71
34177;BME280;20450;49.074;9.158;2023-02-03T03:41:56;101004.84;;;7.59;79.65
34177;BME280;20450;49.074;9.158;2023-02-03T03:44:36;101008.38;;;7.60;79.10
34177;BME280;20450;49.074;9.158;2023-02-03T03:47:11;101026.84;;;7.55;79.74
34177;BME280;20450;49.074;9.158;2023-02-03T03:49:46;101029.53;;;7.55;79.26
34177;BME280;20450;49.074;9.158;2023-02-03T03:52:19;101040.59;;;7.52;80.54
34177;BME280;20450;49.074;9.158;2023-02-03T03:54:52;101034.03;;;7.54;79.92
34177;BME280;20450;49.074;9.158;2023-02-03T03:57:24;101032.69;;;7.50;80.45
34177;BME280;20450;49.074;9.158;2023-02-03T03:59:57;101008.00;;;7.55;79.87
34177;BME280;20450;49.074;9.158;2023-02-03T04:02:39;100999.28;;;7.61;80.04
34177;BME280;20450;49.074;9.158;2023-02-03T04:05:13;101008.53;;;7.58;79.57
34177;BME280;20450;49.074;9.158;2023-02-03T04:07:42;101000.31;;;7.60;79.76
34177;BME280;20450;49.074;9.158;2023-02-03T04:10:17;101007.34;;;7.61;79.40
34177;BME280;20450;49.074;9.158;2023-02-03T04:12:51;100999.13;;;7.62;79.81
34177;BME280;20450;49.074;9.158;2023-02-03T04:15:18;101003.47;;;7.55;80.22
34177;BME280;20450;49.074;9.158;2023-02-03T04:17:45;101002.16;;;7.59;80.35
34177;BME280;20450;49.074;9.158;2023-02-03T04:20:14;100995.09;;;7.58;80.47
34177;BME280;20450;49.074;9.158;2023-02-03T04:22:41;100998.75;;;7.57;80.32
34177;BME280;20450;49.074;9.158;2023-02-03T04:25:08;101002.47;;;7.56;80.26
34177;BME280;20450;49.074;9.158;2023-02-03T04:27:35;101002.31;;;7.58;80.62
34177;BME280;20450;49.074;9.158;2023-02-03T04:30:03;101005.16;;;7.56;80.87
34177;BME280;20450;49.074;9.158;2023-02-03T04:32:31;101006.00;;;7.57;80.51
34177;BME280;20450;49.074;9.158;2023-02-03T04:34:57;101009.84;;;7.54;81.12
34177;BME280;20450;49.074;9.158;2023-02-03T04:37:27;101015.38;;;7.53;81.35
34177;BME280;20450;49.074;9.158;2023-02-03T04:39:54;101011.72;;;7.54;82.41
34177;BME280;20450;49.074;9.158;2023-02-03T04:42:21;101007.16;;;7.54;82.67
34177;BME280;20450;49.074;9.158;2023-02-03T04:44:49;100987.34;;;7.55;82.46
34177;BME280;20450;49.074;9.158;2023-02-03T04:47:17;100984.31;;;7.50;82.66
34177;BME280;20450;49.074;9.158;2023-02-03T04:49:44;100993.22;;;7.51;82.54
34177;BME280;20450;49.074;9.158;2023-02-03T04:52:13;100985.63;;;7.46;82.75
34177;BME280;20450;49.074;9.158;2023-02-03T04:54:42;100991.84;;;7.47;82.72
34177;BME280;20450;49.074;9.158;2023-02-03T04:57:09;100991.66;;;7.48;83.01
34177;BME280;20450;49.074;9.158;2023-02-03T04:59:36;100998.06;;;7.47;83.18
34177;BME280;20450;49.074;9.158;2023-02-03T05:02:03;101010.00;;;7.45;82.75
34177;BME280;20450;49.074;9.158;2023-02-03T05:04:31;101016.88;;;7.47;82.78
34177;BME280;20450;49.074;9.158;2023-02-03T05:06:58;101017.91;;;7.46;83.05
34177;BME280;20450;49.074;9.158;2023-02-03T05:09:24;101011.00;;;7.44;82.08
34177;BME280;20450;49.074;9.158;2023-02-03T05:11:54;101017.53;;;7.41;82.90
34177;BME280;20450;49.074;9.158;2023-02-03T05:14:21;101022.59;;;7.44;82.90
34177;BME280;20450;49.074;9.158;2023-02-03T05:16:48;101025.44;;;7.43;83.04
34177;BME280;20450;49.074;9.158;2023-02-03T05:19:14;101017.84;;;7.38;84.23
34177;BME280;20450;49.074;9.158;2023-02-03T05:21:41;101023.19;;;7.30;84.51
34177;BME280;20450;49.074;9.158;2023-02-03T05:24:08;101003.84;;;7.27;84.50
34177;BME280;20450;49.074;9.158;2023-02-03T05:26:35;101007.25;;;7.29;84.47
34177;BME280;20450;49.074;9.158;2023-02-03T05:29:04;101018.50;;;7.32;84.87
34177;BME280;20450;49.074;9.158;2023-02-03T05:31:30;101018.81;;;7.29;85.03
34177;BME280;20450;49.074;9.158;2023-02-03T05:33:58;101016.59;;;7.25;84.52
34177;BME280;20450;49.074;9.158;2023-02-03T05:36:25;101014.94;;;7.24;85.19
34177;BME280;20450;49.074;9.158;2023-02-03T05:38:52;101011.38;;;7.15;85.43
34177;BME280;20450;49.074;9.158;2023-02-03T05:41:19;100995.59;;;7.20;85.30
34177;BME280;20450;49.074;9.158;2023-02-03T05:43:46;100990.22;;;7.20;84.79
34177;BME280;20450;49.074;9.158;2023-02-03T05:46:14;100981.66;;;7.17;85.77
34177;BME280;20450;49.074;9.158;2023-02-03T05:48:41;100975.41;;;7.16;85.38
34177;BME280;20450;49.074;9.158;2023-02-03T05:51:08;100974.25;;;7.19;85.95
34177;BME280;20450;49.074;9.158;2023-02-03T05:53:35;101002.97;;;7.18;85.80
34177;BME280;20450;49.074;9.158;2023-02-03T05:56:02;100996.28;;;7.22;86.02
34177;BME280;20450;49.074;9.158;2023-02-03T05:58:29;100986.53;;;7.21;85.74
34177;BME280;20450;49.074;9.158;2023-02-03T06:00:56;101003.66;;;7.20;85.41
34177;BME280;20450;49.074;9.158;2023-02-03T06:03:24;100997.94;;;7.23;85.73
34177;BME280;20450;49.074;9.158;2023-02-03T06:05:51;100973.25;;;7.20;84.84
34177;BME280;20450;49.074;9.158;2023-02-03T06:08:18;100976.78;;;7.20;85.38
34177;BME280;20450;49.074;9.158;2023-02-03T06:10:45;100995.44;;;7.22;85.47
34177;BME280;20450;49.074;9.158;2023-02-03T06:13:14;100991.91;;;7.21;85.41
34177;BME280;20450;49.074;9.158;2023-02-03T06:15:42;101000.63;;;7.23;85.43
34177;BME280;20450;49.074;9.158;2023-02-03T06:18:11;100993.59;;;7.22;86.15
34177;BME280;20450;49.074;9.158;2023-02-03T06:20:40;100975.09;;;7.19;85.70
34177;BME280;20450;49.074;9.158;2023-02-03T06:23:07;100982.31;;;7.19;85.81
34177;BME280;20450;49.074;9.158;2023-02-03T06:25:34;100973.91;;;7.14;86.05
34177;BME280;20450;49.074;9.158;2023-02-03T06:28:01;100977.41;;;7.14;85.67
34177;BME280;20450;49.074;9.158;2023-02-03T06:30:28;100962.78;;;7.09;86.29
34177;BME280;20450;49.074;9.158;2023-02-03T06:32:56;100974.06;;;7.12;86.09
34177;BME280;20450;49.074;9.158;2023-02-03T06:35:23;100963.31;;;7.12;86.58
34177;BME280;20450;49.074;9.158;2023-02-03T06:37:51;100959.25;;;7.08;86.63
34177;BME280;20450;49.074;9.158;2023-02-03T06:40:19;100953.72;;;7.10;86.31
34177;BME280;20450;49.074;9.158;2023-02-03T06:42:47;100939.31;;;7.11;86.25
34177;BME280;20450;49.074;9.158;2023-02-03T06:45:14;100945.81;;;7.08;86.32
34177;BME280;20450;49.074;9.158;2023-02-03T06:47:42;100952.03;;;7.09;85.73
34177;BME280;20450;49.074;9.158;2023-02-03T06:50:12;100960.78;;;7.11;86.26
34177;BME280;20450;49.074;9.158;2023-02-03T06:52:40;100967.53;;;7.15;86.10
34177;BME280;20450;49.074;9.158;2023-02-03T06:55:09;100960.66;;;7.20;85.52
34177;BME280;20450;49.074;9.158;2023-02-03T06:57:42;100954.94;;;7.23;85.23
34177;BME280;20450;49.074;9.158;2023-02-03T07:00:12;100961.81;;;7.18;85.58
34177;BME280;20450;49.074;9.158;2023-02-03T07:02:52;100970.03;;;7.16;85.09
34177;BME280;20450;49.074;9.158;2023-02-03T07:05:20;100987.69;;;7.19;85.09
34177;BME280;20450;49.074;9.158;2023-02-03T07:07:47;100975.09;;;7.19;85.58
34177;BME280;20450;49.074;9.158;2023-02-03T07:10:16;100979.31;;;7.22;85.15
34177;BME280;20450;49.074;9.158;2023-02-03T07:12:43;100971.06;;;7.23;85.39
34177;BME280;20450;49.074;9.158;2023-02-03T07:15:10;100969.63;;;7.29;84.55
34177;BME280;20450;49.074;9.158;2023-02-03T07:17:37;100962.03;;;7.24;84.15
34177;BME280;20450;49.074;9.158;2023-02-03T07:20:05;100973.13;;;7.29;84.95
34177;BME280;20450;49.074;9.158;2023-02-03T07:22:32;100962.91;;;7.33;84.83
34177;BME280;20450;49.074;9.158;2023-02-03T07:24:59;100973.16;;;7.37;84.43
34177;BME280;20450;49.074;9.158;2023-02-03T07:27:27;100976.53;;;7.39;84.50
34177;BME280;20450;49.074;9.158;2023-02-03T07:29:54;100976.22;;;7.42;85.43
34177;BME280;20450;49.074;9.158;2023-02-03T07:32:21;100998.56;;;7.43;84.03
34177;BME280;20450;49.074;9.158;2023-02-03T07:34:48;101004.09;;;7.41;84.94
34177;BME280;20450;49.074;9.158;2023-02-03T07:37:15;101011.81;;;7.44;83.88
34177;BME280;20450;49.074;9.158;2023-02-03T07:39:42;101016.72;;;7.49;84.73
34177;BME280;20450;49.074;9.158;2023-02-03T07:42:17;101017.25;;;7.52;83.77
34177;BME280;20450;49.074;9.158;2023-02-03T07:44:46;101008.16;;;7.53;83.66
34177;BME280;20450;49.074;9.158;2023-02-03T07:47:14;101014.56;;;7.52;84.72
34177;BME280;20450;49.074;9.158;2023-02-03T07:49:45;101015.25;;;7.62;83.61
34177;BME280;20450;49.074;9.158;2023-02-03T07:52:19;101013.91;;;7.58;84.52
34177;BME280;20450;49.074;9.158;2023-02-03T07:54:48;101024.66;;;7.58;84.26
34177;BME280;20450;49.074;9.158;2023-02-03T07:57:15;101021.28;;;7.56;84.66
34177;BME280;20450;49.074;9.158;2023-02-03T07:59:50;101024.53;;;7.68;84.28
34177;BME280;20450;49.074;9.158;2023-02-03T08:02:17;101023.38;;;7.70;84.17
34177;BME280;20450;49.074;9.158;2023-02-03T08:09:30;101037.03;;;7.85;83.59
34177;BME280;20450;49.074;9.158;2023-02-03T08:11:57;101047.59;;;7.78;84.43
34177;BME280;20450;49.074;9.158;2023-02-03T08:14:24;101045.91;;;7.77;83.85
34177;BME280;20450;49.074;9.158;2023-02-03T08:16:52;101031.28;;;7.80;83.82
34177;BME280;20450;49.074;9.158;2023-02-03T08:19:19;101028.59;;;7.72;83.80
34177;BME280;20450;49.074;9.158;2023-02-03T08:21:46;101028.09;;;7.76;84.61
34177;BME280;20450;49.074;9.158;2023-02-03T08:24:13;101015.31;;;7.78;83.91
34177;BME280;20450;49.074;9.158;2023-02-03T08:26:40;101029.16;;;7.91;83.06
34177;BME280;20450;49.074;9.158;2023-02-03T08:29:06;101031.50;;;7.94;82.87
34177;BME280;20450;49.074;9.158;2023-02-03T08:31:33;101032.19;;;7.88;83.26
34177;BME280;20450;49.074;9.158;2023-02-03T08:34:02;101038.56;;;7.95;82.64
34177;BME280;20450;49.074;9.158;2023-02-03T08:36:29;101032.22;;;8.04;83.36
34177;BME280;20450;49.074;9.158;2023-02-03T08:38:55;101019.94;;;8.10;81.98
34177;BME280;20450;49.074;9.158;2023-02-03T08:41:22;101019.44;;;8.15;82.01
34177;BME280;20450;49.074;9.158;2023-02-03T08:43:49;101018.06;;;8.02;82.64
34177;BME280;20450;49.074;9.158;2023-02-03T08:46:16;101024.28;;;7.95;82.72
34177;BME280;20450;49.074;9.158;2023-02-03T08:48:43;101029.66;;;7.87;82.24
34177;BME280;20450;49.074;9.158;2023-02-03T08:51:14;101036.38;;;7.91;82.87
34177;BME280;20450;49.074;9.158;2023-02-03T08:53:43;101036.38;;;7.91;82.34
34177;BME280;20450;49.074;9.158;2023-02-03T08:56:11;101025.63;;;7.99;82.74
34177;BME280;20450;49.074;9.158;2023-02-03T08:58:38;101019.25;;;8.00;83.35
34177;BME280;20450;49.074;9.158;2023-02-03T09:01:07;101017.06;;;8.03;83.31
34177;BME280;20450;49.074;9.158;2023-02-03T09:03:34;101019.25;;;8.00;83.74
34177;BME280;20450;49.074;9.158;2023-02-03T09:06:02;101005.31;;;8.04;82.74
34177;BME280;20450;49.074;9.158;2023-02-03T09:08:32;101013.78;;;8.26;82.50
34177;BME280;20450;49.074;9.158;2023-02-03T09:10:59;101021.84;;;8.50;82.21
34177;BME280;20450;49.074;9.158;2023-02-03T09:13:26;101014.13;;;8.55;80.73
34177;BME280;20450;49.074;9.158;2023-02-03T09:15:54;101022.69;;;8.50;81.24
34177;BME280;20450;49.074;9.158;2023-02-03T09:18:21;101018.34;;;8.49;80.95
34177;BME280;20450;49.074;9.158;2023-02-03T09:20:48;101032.28;;;8.37;81.25
34177;BME280;20450;49.074;9.158;2023-02-03T09:23:15;101030.59;;;8.36;81.61
34177;BME280;20450;49.074;9.158;2023-02-03T09:25:43;101032.63;;;8.34;81.89
34177;BME280;20450;49.074;9.158;2023-02-03T09:28:14;101031.78;;;8.25;82.57
34177;BME280;20450;49.074;9.158;2023-02-03T09:30:42;101017.44;;;8.17;83.07
34177;BME280;20450;49.074;9.158;2023-02-03T09:33:09;101029.19;;;8.16;83.52
34177;BME280;20450;49.074;9.158;2023-02-03T09:35:36;101021.78;;;8.09;82.93
34177;BME280;20450;49.074;9.158;2023-02-03T09:38:03;101016.91;;;8.13;83.21
34177;BME280;20450;49.074;9.158;2023-02-03T09:40:33;101022.78;;;8.08;83.30
34177;BME280;20450;49.074;9.158;2023-02-03T09:43:28;101019.94;;;8.10;83.57
34177;BME280;20450;49.074;9.158;2023-02-03T09:46:01;101012.88;;;8.17;83.49
34177;BME280;20450;49.074;9.158;2023-02-03T09:48:36;100996.25;;;8.14;83.56
34177;BME280;20450;49.074;9.158;2023-02-03T09:51:17;100998.94;;;8.14;83.16
34177;BME280;20450;49.074;9.158;2023-02-03T09:53:52;101009.03;;;8.20;83.02
34177;BME280;20450;49.074;9.158;2023-02-03T09:56:28;100994.56;;;8.21;82.59
34177;BME280;20450;49.074;9.158;2023-02-03T09:58:59;101013.13;;;8.32;82.37
34177;BME280;20450;49.074;9.158;2023-02-03T10:01:33;101007.03;;;8.30;81.81
34177;BME280;20450;49.074;9.158;2023-02-03T10:04:21;101008.06;;;8.29;82.08
34177;BME280;20450;49.074;9.158;2023-02-03T10:07:03;101012.94;;;8.25;82.15
34177;BME280;20450;49.074;9.158;2023-02-03T10:09:50;101006.34;;;8.28;82.28
34177;BME280;20450;49.074;9.158;2023-02-03T10:12:49;101019.16;;;8.26;82.71
34177;BME280;20450;49.074;9.158;2023-02-03T10:15:43;101016.13;;;8.37;82.45
34177;BME280;20450;49.074;9.158;2023-02-03T10:18:23;101011.75;;;8.36;82.30
34177;BME280;20450;49.074;9.158;2023-02-03T10:20:57;101031.94;;;8.40;82.33
34177;BME280;20450;49.074;9.158;2023-02-03T10:23:30;101032.47;;;8.43;82.29
34177;BME280;20450;49.074;9.158;2023-02-03T10:26:04;101019.31;;;8.48;82.31
34177;BME280;20450;49.074;9.158;2023-02-03T10:28:38;101018.50;;;8.32;82.27
34177;BME280;20450;49.074;9.158;2023-02-03T10:31:16;101012.44;;;8.38;82.73
34177;BME280;20450;49.074;9.158;2023-02-03T10:33:46;101017.31;;;8.50;81.97
34177;BME280;20450;49.074;9.158;2023-02-03T10:36:17;101029.94;;;8.50;80.89
34177;BME280;20450;49.074;9.158;2023-02-03T10:38:55;101030.59;;;8.52;81.81
34177;BME280;20450;49.074;9.158;2023-02-03T10:41:28;101023.56;;;8.51;81.45
34177;BME280;20450;49.074;9.158;2023-02-03T10:43:57;101021.84;;;8.50;81.59
34177;BME280;20450;49.074;9.158;2023-02-03T10:46:33;101022.34;;;8.45;82.46
34177;BME280;20450;49.074;9.158;2023-02-03T10:49:03;101021.69;;;8.43;82.24
34177;BME280;20450;49.074;9.158;2023-02-03T10:51:35;101018.66;;;8.38;82.35
34177;BME280;20450;49.074;9.158;2023-02-03T10:54:26;100999.63;;;8.40;82.69
34177;BME280;20450;49.074;9.158;2023-02-03T10:57:00;100988.53;;;8.51;82.29
34177;BME280;20450;49.074;9.158;2023-02-03T10:59:33;100995.28;;;8.63;81.67
34177;BME280;20450;49.074;9.158;2023-02-03T11:02:08;100976.75;;;8.60;81.60
34177;BME280;20450;49.074;9.158;2023-02-03T11:04:36;100969.31;;;8.62;80.99
34177;BME280;20450;49.074;9.158;2023-02-03T11:07:04;100959.22;;;8.64;81.32
34177;BME280;20450;49.074;9.158;2023-02-03T11:09:35;100968.50;;;8.61;81.71
34177;BME280;20450;49.074;9.158;2023-02-03T11:12:09;100967.16;;;8.49;82.25
34177;BME280;20450;49.074;9.158;2023-02-03T11:14:40;100971.53;;;8.34;82.02
34177;BME280;20450;49.074;9.158;2023-02-03T11:17:15;100981.16;;;8.29;83.25
34177;BME280;20450;49.074;9.158;2023-02-03T11:19:44;100982.13;;;8.28;83.81
34177;BME280;20450;49.074;9.158;2023-02-03T11:22:26;100979.44;;;8.28;83.47
34177;BME280;20450;49.074;9.158;2023-02-03T11:24:56;100966.66;;;8.30;82.83
34177;BME280;20450;49.074;9.158;2023-02-03T11:27:28;100963.47;;;8.34;82.08
34177;BME280;20450;49.074;9.158;2023-02-03T11:30:09;100961.28;;;8.38;81.57
34177;BME280;20450;49.074;9.158;2023-02-03T11:32:43;100962.28;;;8.37;81.67
34177;BME280;20450;49.074;9.158;2023-02-03T11:35:15;100952.19;;;8.39;81.06
34177;BME280;20450;49.074;9.158;2023-02-03T11:37:46;100933.00;;;8.34;80.78
34177;BME280;20450;49.074;9.158;2023-02-03T11:40:23;100930.66;;;8.39;80.57
34177;BME280;20450;49.074;9.158;2023-02-03T11:43:02;100925.63;;;8.36;80.08
34177;BME280;20450;49.074;9.158;2023-02-03T11:45:35;100921.38;;;8.41;79.72
34177;BME280;20450;49.074;9.158;2023-02-03T11:48:17;100932.34;;;8.48;79.96
34177;BME280;20450;49.074;9.158;2023-02-03T11:50:59;100934.00;;;8.49;79.10
34177;BME280;20450;49.074;9.158;2023-02-03T11:53:38;100933.81;;;8.42;79.41
34177;BME280;20450;49.074;9.158;2023-02-03T11:56:31;100925.59;;;8.44;79.71
34177;BME280;20450;49.074;9.158;2023-02-03T11:59:43;100925.59;;;8.44;79.00
34177;BME280;20450;49.074;9.158;2023-02-03T12:02:43;100938.88;;;8.45;78.73
34177;BME280;20450;49.074;9.158;2023-02-03T12:05:56;100928.63;;;8.49;78.39
34177;BME280;20450;49.074;9.158;2023-02-03T12:08:44;100931.81;;;8.52;78.72
34177;BME280;20450;49.074;9.158;2023-02-03T12:11:35;100930.28;;;8.50;78.25
34177;BME280;20450;49.074;9.158;2023-02-03T12:14:31;100934.69;;;8.51;78.21
34177;BME280;20450;49.074;9.158;2023-02-03T12:17:31;100945.13;;;8.54;78.48
34177;BME280;20450;49.074;9.158;2023-02-03T12:20:30;100929.59;;;8.56;78.46
34177;BME280;20450;49.074;9.158;2023-02-03T12:23:18;100917.69;;;8.50;78.57
34177;BME280;20450;49.074;9.158;2023-02-03T12:26:05;100898.31;;;8.47;78.49
34177;BME280;20450;49.074;9.158;2023-02-03T12:28:47;100906.06;;;8.50;78.54
34177;BME280;20450;49.074;9.158;2023-02-03T12:31:27;100885.88;;;8.46;78.67
34177;BME280;20450;49.074;9.158;2023-02-03T12:34:08;100892.75;;;8.48;78.19
34177;BME280;20450;49.074;9.158;2023-02-03T12:36:44;100883.81;;;8.56;78.07
34177;BME280;20450;49.074;9.158;2023-02-03T12:39:22;100866.16;;;8.53;78.04
34177;BME280;20450;49.074;9.158;2023-02-03T12:41:59;100875.41;;;8.59;78.49
34177;BME280;20450;49.074;9.158;2023-02-03T12:44:33;100857.41;;;8.59;78.26
34177;BME280;20450;49.074;9.158;2023-02-03T12:47:11;100854.88;;;8.50;77.88
34177;BME280;20450;49.074;9.158;2023-02-03T12:49:47;100852.88;;;8.52;78.37
34177;BME280;20450;49.074;9.158;2023-02-03T12:52:23;100854.72;;;8.51;77.90
34177;BME280;20450;49.074;9.158;2023-02-03T12:55:05;100859.28;;;8.51;78.03
34177;BME280;20450;49.074;9.158;2023-02-03T12:57:44;100858.94;;;8.46;79.04
34177;BME280;20450;49.074;9.158;2023-02-03T13:00:23;100860.44;;;8.48;79.11
34177;BME280;20450;49.074;9.158;2023-02-03T13:03:14;100869.91;;;8.44;79.42
34177;BME280;20450;49.074;9.158;2023-02-03T13:05:53;100852.25;;;8.42;79.56
34177;BME280;20450;49.074;9.158;2023-02-03T13:08:35;100857.13;;;8.38;79.56
34177;BME280;20450;49.074;9.158;2023-02-03T13:11:18;100856.78;;;8.41;79.54
34177;BME280;20450;49.074;9.158;2023-02-03T13:13:51;100841.47;;;8.42;79.82
34177;BME280;20450;49.074;9.158;2023-02-03T13:16:24;100841.47;;;8.42;79.62
34177;BME280;20450;49.074;9.158;2023-02-03T13:18:58;100832.06;;;8.38;80.05
34177;BME280;20450;49.074;9.158;2023-02-03T13:21:31;100824.16;;;8.36;79.92
34177;BME280;20450;49.074;9.158;2023-02-03T13:23:58;100816.09;;;8.36;79.45
34177;BME280;20450;49.074;9.158;2023-02-03T13:27:02;100808.66;;;8.38;79.46
34177;BME280;20450;49.074;9.158;2023-02-03T13:29:57;100802.94;;;8.41;79.46
34177;BME280;20450;49.074;9.158;2023-02-03T13:33:05;100785.75;;;8.42;79.68
34177;BME280;20450;49.074;9.158;2023-02-03T13:36:02;100780.53;;;8.41;79.50